Terminal Aerodrome Forecast
Issued by NWS Jackson, KY

Home | Current Version | Previous Version | Text Only | Print | Product List | Glossary On
Versions: 1 2 3 4 5 6 7 8 9 10 11 12 13
000
FTUS43 KJKL 132300
TAFJKL
TAF
KJKL 132334Z 1400/1424 VRB03KT P6SM VCTS SCT050CB SCT250
     FM140700 VRB03KT P6SM SCT040 BKN200
     FM141200 VRB03KT P6SM VCTS BKN035CB BKN120=

USA.gov is the U.S. government's official web portal to all federal, state and local government web resources and services.